Terminal Aerodrome Forecast
Issued by NWS

Home | Current Version | Previous Version | Text Only | Print | Product List | Glossary On
Versions: 1 2 3 4 5 6 7 8 9 10 11 12
000
FTUS46 KPDT 180500
TAFPSC
TAF
KPSC 180521Z 1806/1906 VRB04KT P6SM SCT150 OVC250
     FM181200 VRB05KT P6SM SCT120 BKN180
     FM181800 22007KT P6SM SCT100 BKN150
     FM182100 22008G15KT P6SM SCT090 BKN120=

USA.gov is the U.S. government's official web portal to all federal, state and local government web resources and services.